createdAt,value
2023-03-16T00:02:05.014Z,4.35
2023-03-16T00:04:32.531Z,3.75
2023-03-16T00:06:59.330Z,3.90
2023-03-16T00:09:31.115Z,4.13
2023-03-16T00:14:31.404Z,4.03
2023-03-16T00:16:58.220Z,4.10
2023-03-16T00:19:24.939Z,3.70
2023-03-16T00:21:52.546Z,3.65
2023-03-16T00:24:19.985Z,4.00
2023-03-16T00:26:47.648Z,3.80
2023-03-16T00:29:14.888Z,4.20
2023-03-16T00:31:45.013Z,4.15
2023-03-16T00:34:12.760Z,4.10
2023-03-16T00:36:39.379Z,4.40
2023-03-16T00:39:06.797Z,4.68
2023-03-16T00:41:37.855Z,4.18
2023-03-16T00:44:05.679Z,4.40
2023-03-16T00:46:32.684Z,4.68
2023-03-16T00:48:59.460Z,4.15
2023-03-16T00:51:26.093Z,4.25
2023-03-16T00:53:52.851Z,4.13
2023-03-16T00:56:19.517Z,4.40
2023-03-16T00:58:46.191Z,4.18
2023-03-16T01:01:16.397Z,4.63
2023-03-16T01:03:43.556Z,4.57
2023-03-16T01:06:13.422Z,4.80
2023-03-16T01:08:40.576Z,4.90
2023-03-16T01:11:10.731Z,4.40
2023-03-16T01:13:38.624Z,4.72
2023-03-16T01:16:06.089Z,4.72
2023-03-16T01:18:35.967Z,4.93
2023-03-16T01:21:05.145Z,4.68
2023-03-16T01:23:31.943Z,4.38
2023-03-16T01:25:59.448Z,4.00
2023-03-16T01:28:28.681Z,4.47
2023-03-16T01:30:59.580Z,4.60
2023-03-16T01:33:28.037Z,4.35
2023-03-16T01:36:01.886Z,4.38
2023-03-16T01:38:28.949Z,4.47
2023-03-16T01:40:55.904Z,4.70
2023-03-16T01:43:25.385Z,4.93
2023-03-16T01:45:57.627Z,4.00
2023-03-16T01:48:26.474Z,4.63
2023-03-16T01:50:53.852Z,5.10
2023-03-16T01:53:22.780Z,5.05
2023-03-16T01:55:50.724Z,4.82
2023-03-16T01:58:17.950Z,4.88
2023-03-16T02:00:45.733Z,4.80
2023-03-16T02:03:16.363Z,4.30
2023-03-16T02:05:57.803Z,4.50
2023-03-16T02:08:25.312Z,5.40
2023-03-16T02:10:54.573Z,4.82
2023-03-16T02:13:23.963Z,4.65
2023-03-16T02:15:52.354Z,4.63
2023-03-16T02:18:19.999Z,4.90
2023-03-16T02:20:52.751Z,5.38
2023-03-16T02:23:23.262Z,4.47
2023-03-16T02:25:58.598Z,5.50
2023-03-16T02:28:36.219Z,4.15
2023-03-16T02:31:04.728Z,4.68
2023-03-16T02:33:33.336Z,5.30
2023-03-16T02:36:00.028Z,4.70
2023-03-16T02:38:26.661Z,4.82
2023-03-16T02:41:10.651Z,4.80
2023-03-16T02:43:39.938Z,4.93
2023-03-16T02:46:07.457Z,5.10
2023-03-16T02:49:16.370Z,4.60
2023-03-16T02:51:45.281Z,5.18
2023-03-16T02:54:12.738Z,4.55
2023-03-16T02:56:39.743Z,5.07
2023-03-16T02:59:06.698Z,4.32
2023-03-16T03:01:34.889Z,4.88
2023-03-16T03:04:02.861Z,4.82
2023-03-16T03:06:30.079Z,4.40
2023-03-16T03:08:56.909Z,5.13
2023-03-16T03:11:23.692Z,4.70
2023-03-16T03:13:50.939Z,4.72
2023-03-16T03:16:17.681Z,4.80
2023-03-16T03:18:44.304Z,4.70
2023-03-16T03:21:10.973Z,4.53
2023-03-16T03:23:37.667Z,5.18
2023-03-16T03:26:05.106Z,5.00
2023-03-16T03:28:34.205Z,4.72
2023-03-16T03:31:01.739Z,5.00
2023-03-16T03:33:28.853Z,5.03
2023-03-16T03:35:57.482Z,5.35
2023-03-16T03:38:25.125Z,4.90
2023-03-16T03:40:53.407Z,5.00
2023-03-16T03:43:21.678Z,5.20
2023-03-16T03:45:48.313Z,4.70
2023-03-16T03:48:14.952Z,5.20
2023-03-16T03:50:41.790Z,4.90
2023-03-16T03:53:08.522Z,5.00
2023-03-16T03:55:35.189Z,5.10
2023-03-16T03:58:01.901Z,5.47
2023-03-16T04:00:28.863Z,4.78
2023-03-16T04:02:55.909Z,5.40
2023-03-16T04:05:22.622Z,5.07
2023-03-16T04:07:50.808Z,5.47
2023-03-16T04:10:17.473Z,6.05
2023-03-16T04:12:44.167Z,5.20
2023-03-16T04:15:12.492Z,5.47
2023-03-16T04:17:39.155Z,5.63
2023-03-16T04:20:12.655Z,5.57
2023-03-16T04:22:39.290Z,5.57
2023-03-16T04:25:06.068Z,4.88
2023-03-16T04:27:36.457Z,4.78
2023-03-16T04:30:11.185Z,5.07
2023-03-16T04:32:38.076Z,5.25
2023-03-16T04:35:05.642Z,5.50
2023-03-16T04:37:32.345Z,5.55
2023-03-16T04:39:59.049Z,5.32
2023-03-16T04:42:25.710Z,5.45
2023-03-16T04:44:52.403Z,4.72
2023-03-16T04:47:19.064Z,5.63
2023-03-16T04:49:46.214Z,4.72
2023-03-16T04:52:13.003Z,4.70
2023-03-16T04:54:39.696Z,5.05
2023-03-16T04:57:06.365Z,4.72
2023-03-16T04:59:33.072Z,4.85
2023-03-16T05:01:59.700Z,5.13
2023-03-16T05:04:26.385Z,4.85
2023-03-16T05:06:53.091Z,5.03
2023-03-16T05:09:20.681Z,4.03
2023-03-16T05:11:47.364Z,5.13
2023-03-16T05:14:14.052Z,4.95
2023-03-16T05:16:41.903Z,4.70
2023-03-16T05:19:08.793Z,5.10
2023-03-16T05:21:37.700Z,4.50
2023-03-16T05:24:08.098Z,5.25
2023-03-16T05:26:34.695Z,5.00
2023-03-16T05:29:01.977Z,4.47
2023-03-16T05:31:32.607Z,4.28
2023-03-16T05:33:59.549Z,4.55
2023-03-16T05:36:26.200Z,4.70
2023-03-16T05:38:52.888Z,4.95
2023-03-16T05:41:21.439Z,4.90
2023-03-16T05:43:48.218Z,4.75
2023-03-16T05:46:14.901Z,4.60
2023-03-16T05:48:41.568Z,4.88
2023-03-16T05:51:08.226Z,4.63
2023-03-16T05:53:35.529Z,4.85
2023-03-16T05:56:02.555Z,4.75
2023-03-16T05:58:29.502Z,4.25
2023-03-16T06:00:58.960Z,4.10
2023-03-16T06:03:25.960Z,4.70
2023-03-16T06:05:52.554Z,4.75
2023-03-16T06:08:19.434Z,4.53
2023-03-16T06:10:48.904Z,4.35
2023-03-16T06:13:15.591Z,3.95
2023-03-16T06:15:44.120Z,3.97
2023-03-16T06:18:10.898Z,4.63
2023-03-16T06:20:37.574Z,4.70
2023-03-16T06:23:04.382Z,4.43
2023-03-16T06:25:31.225Z,4.43
2023-03-16T06:27:57.966Z,4.25
2023-03-16T06:30:24.778Z,3.90
2023-03-16T06:32:52.117Z,4.15
2023-03-16T06:35:18.921Z,3.90
2023-03-16T06:37:45.589Z,4.20
2023-03-16T06:40:13.502Z,4.63
2023-03-16T06:42:40.202Z,4.57
2023-03-16T06:45:07.397Z,3.92
2023-03-16T06:47:34.096Z,3.92
2023-03-16T06:50:00.993Z,4.50
2023-03-16T06:52:27.753Z,4.13
2023-03-16T06:54:54.387Z,3.47
2023-03-16T06:57:21.388Z,3.15
2023-03-16T06:59:48.028Z,3.53
2023-03-16T07:02:15.259Z,3.30
2023-03-16T07:04:42.020Z,3.72
2023-03-16T07:07:09.685Z,3.85
2023-03-16T07:09:39.125Z,3.72
2023-03-16T07:12:07.352Z,3.60
2023-03-16T07:14:33.956Z,3.70
2023-03-16T07:17:01.621Z,4.15
2023-03-16T07:19:29.056Z,4.00
2023-03-16T07:21:55.693Z,3.97
2023-03-16T07:24:22.482Z,3.80
2023-03-16T07:26:49.261Z,3.67
2023-03-16T07:29:17.145Z,3.85
2023-03-16T07:31:44.210Z,3.70
2023-03-16T07:34:11.620Z,3.50
2023-03-16T07:36:38.493Z,3.88
2023-03-16T07:39:06.232Z,3.85
2023-03-16T07:41:32.984Z,3.47
2023-03-16T07:43:59.682Z,3.47
2023-03-16T07:46:26.564Z,3.33
2023-03-16T07:48:53.360Z,3.60
2023-03-16T07:51:20.088Z,3.92
2023-03-16T07:53:46.871Z,4.35
2023-03-16T07:56:13.570Z,3.90
2023-03-16T07:58:40.211Z,3.63
2023-03-16T08:01:06.898Z,3.85
2023-03-16T08:03:33.619Z,3.78
2023-03-16T08:06:00.351Z,3.95
2023-03-16T08:08:27.007Z,3.67
2023-03-16T08:10:55.624Z,4.57
2023-03-16T08:13:23.412Z,3.78
2023-03-16T08:15:58.332Z,3.53
2023-03-16T08:18:26.441Z,3.72
2023-03-16T08:20:53.537Z,3.42
2023-03-16T08:23:21.241Z,3.60
2023-03-16T08:25:51.813Z,4.13
2023-03-16T08:28:21.440Z,3.50
2023-03-16T08:30:50.958Z,3.95
2023-03-16T08:33:22.528Z,4.32
2023-03-16T08:38:16.379Z,3.40
2023-03-16T08:40:48.378Z,4.82
2023-03-16T08:43:19.155Z,3.38
2023-03-16T08:45:46.602Z,3.00
2023-03-16T08:48:14.316Z,3.58
2023-03-16T08:50:43.267Z,3.72
2023-03-16T08:53:11.945Z,3.28
2023-03-16T08:55:38.608Z,3.38
2023-03-16T08:58:05.217Z,3.30
2023-03-16T09:00:31.886Z,3.63
2023-03-16T09:02:58.912Z,3.17
2023-03-16T09:05:25.689Z,3.38
2023-03-16T09:07:54.027Z,3.58
2023-03-16T09:10:23.039Z,2.70
2023-03-16T09:12:51.903Z,2.97
2023-03-16T09:15:20.706Z,3.47
2023-03-16T09:17:48.322Z,3.13
2023-03-16T09:20:26.859Z,3.03
2023-03-16T09:22:56.852Z,3.05
2023-03-16T09:25:25.402Z,3.28
2023-03-16T09:27:52.815Z,2.75
2023-03-16T09:30:19.773Z,3.50
2023-03-16T09:32:48.755Z,3.05
2023-03-16T09:35:15.674Z,2.75
2023-03-16T09:37:45.600Z,3.75
2023-03-16T09:40:26.556Z,3.22
2023-03-16T09:43:31.563Z,3.40
2023-03-16T09:46:12.784Z,3.40
2023-03-16T09:48:41.097Z,3.58
2023-03-16T09:51:20.269Z,3.97
2023-03-16T09:53:48.729Z,2.60
2023-03-16T09:56:40.755Z,2.90
2023-03-16T09:59:13.488Z,3.75
2023-03-16T10:01:57.367Z,3.15
2023-03-16T10:04:53.071Z,3.50
2023-03-16T10:08:04.512Z,2.88
2023-03-16T10:10:56.055Z,3.10
2023-03-16T10:13:31.914Z,3.20
2023-03-16T10:16:02.574Z,3.13
2023-03-16T10:18:35.777Z,2.95
2023-03-16T10:21:03.149Z,3.47
2023-03-16T10:23:34.423Z,3.05
2023-03-16T10:26:09.507Z,3.75
2023-03-16T10:28:37.639Z,2.50
2023-03-16T10:31:04.845Z,2.55
2023-03-16T10:33:34.074Z,3.15
2023-03-16T10:36:05.598Z,3.08
2023-03-16T10:38:41.027Z,2.67
2023-03-16T10:41:20.454Z,2.72
2023-03-16T10:43:52.268Z,2.83
2023-03-16T10:49:00.012Z,2.53
2023-03-16T10:51:36.459Z,2.60
2023-03-16T10:54:14.168Z,2.75
2023-03-16T10:56:40.910Z,2.55
2023-03-16T10:59:38.194Z,2.65
2023-03-16T11:02:20.655Z,2.72
2023-03-16T11:04:47.916Z,2.42
2023-03-16T11:07:19.136Z,2.60
2023-03-16T11:09:47.771Z,2.65
2023-03-16T11:12:26.399Z,2.13
2023-03-16T11:14:54.115Z,3.00
2023-03-16T11:17:39.776Z,3.05
2023-03-16T11:20:20.507Z,2.50
2023-03-16T11:22:48.554Z,2.90
2023-03-16T11:25:21.488Z,2.42
2023-03-16T11:28:11.896Z,2.42
2023-03-16T11:30:51.708Z,2.40
2023-03-16T11:33:18.486Z,2.03
2023-03-16T11:36:00.945Z,2.40
2023-03-16T11:38:36.176Z,2.30
2023-03-16T11:41:20.215Z,2.28
2023-03-16T11:43:57.734Z,2.08
2023-03-16T11:46:36.632Z,2.08
2023-03-16T11:49:45.637Z,2.00
2023-03-16T11:52:25.231Z,1.98
2023-03-16T11:55:16.087Z,1.60
2023-03-16T11:57:51.230Z,1.83
2023-03-16T12:00:24.472Z,1.70
2023-03-16T12:02:59.014Z,2.08
2023-03-16T12:05:48.518Z,1.40
2023-03-16T12:08:36.258Z,1.90
2023-03-16T12:11:07.697Z,1.50
2023-03-16T12:14:28.769Z,1.90
2023-03-16T12:17:02.635Z,1.50
2023-03-16T12:20:01.988Z,1.35
2023-03-16T12:22:38.752Z,1.58
2023-03-16T12:25:16.771Z,1.65
2023-03-16T12:27:45.438Z,1.50
2023-03-16T12:30:50.610Z,1.45
2023-03-16T12:33:55.188Z,1.40
2023-03-16T12:36:52.565Z,1.60
2023-03-16T12:39:32.560Z,1.35
2023-03-16T12:42:39.840Z,1.33
2023-03-16T12:45:16.426Z,1.40
2023-03-16T12:48:14.523Z,1.33
2023-03-16T12:50:50.404Z,1.30
2023-03-16T12:53:51.627Z,1.38
2023-03-16T12:56:21.398Z,0.90
2023-03-16T12:58:50.566Z,1.30
2023-03-16T13:01:20.769Z,1.40
2023-03-16T13:03:50.466Z,1.20
2023-03-16T13:06:19.682Z,1.20
2023-03-16T13:08:52.394Z,1.08
2023-03-16T13:11:19.272Z,1.23
2023-03-16T13:13:52.627Z,1.30
2023-03-16T13:16:33.614Z,1.30
2023-03-16T13:19:00.857Z,1.23
2023-03-16T13:21:37.655Z,1.00
2023-03-16T13:24:22.961Z,1.00
2023-03-16T13:26:53.567Z,0.98
2023-03-16T13:29:22.951Z,1.40
2023-03-16T13:31:51.422Z,1.30
2023-03-16T13:34:30.757Z,1.00
2023-03-16T13:36:59.612Z,1.30
2023-03-16T13:39:31.293Z,1.00
2023-03-16T13:44:29.397Z,1.15
2023-03-16T13:46:56.431Z,1.48
2023-03-16T13:49:23.612Z,1.35
2023-03-16T13:51:50.361Z,0.88
2023-03-16T13:54:28.275Z,0.80
2023-03-16T13:57:02.861Z,1.00
2023-03-16T13:59:30.066Z,1.10
2023-03-16T14:01:59.826Z,1.33
2023-03-16T14:04:29.674Z,1.17
2023-03-16T14:07:01.828Z,1.08
2023-03-16T14:09:31.892Z,0.77
2023-03-16T14:11:58.828Z,0.88
2023-03-16T14:14:29.872Z,0.90
2023-03-16T14:17:10.479Z,1.02
2023-03-16T14:19:51.429Z,1.00
2023-03-16T14:22:24.356Z,1.07
2023-03-16T14:25:00.705Z,0.93
2023-03-16T14:27:39.299Z,0.95
2023-03-16T14:30:27.621Z,1.25
2023-03-16T14:33:05.467Z,0.85
2023-03-16T14:35:56.290Z,0.85
2023-03-16T14:38:31.039Z,1.13
2023-03-16T14:41:03.832Z,1.48
2023-03-16T14:43:33.615Z,1.10
2023-03-16T14:46:03.772Z,1.00
2023-03-16T14:48:30.496Z,0.80
2023-03-16T14:51:02.343Z,0.88
2023-03-16T14:53:30.041Z,0.90
2023-03-16T14:55:58.077Z,0.88
2023-03-16T14:58:25.626Z,0.90
2023-03-16T15:00:53.820Z,1.00
2023-03-16T15:03:23.718Z,0.70
2023-03-16T15:05:52.037Z,1.08
2023-03-16T15:08:31.498Z,1.10
2023-03-16T15:11:01.621Z,0.85
2023-03-16T15:13:47.120Z,1.20
2023-03-16T15:16:15.035Z,1.15
2023-03-16T15:18:42.568Z,1.42
2023-03-16T15:21:18.003Z,0.73
2023-03-16T15:23:44.743Z,0.90
2023-03-16T15:26:13.288Z,1.00
2023-03-16T15:28:40.109Z,1.10
2023-03-16T15:31:07.393Z,0.90
2023-03-16T15:33:34.013Z,0.93
2023-03-16T15:36:07.088Z,1.17
2023-03-16T15:38:36.567Z,1.17
2023-03-16T15:41:03.507Z,0.90
2023-03-16T15:43:31.986Z,0.88
2023-03-16T15:45:59.844Z,1.08
2023-03-16T15:48:26.971Z,0.70
2023-03-16T15:50:57.036Z,0.65
2023-03-16T15:53:31.318Z,0.90
2023-03-16T15:56:05.837Z,0.80
2023-03-16T15:58:34.636Z,0.75
2023-03-16T16:01:02.881Z,0.70
2023-03-16T16:03:29.708Z,0.68
2023-03-16T16:05:56.542Z,0.98
2023-03-16T16:08:23.269Z,0.90
2023-03-16T16:10:53.112Z,0.75
2023-03-16T16:13:43.105Z,0.80
2023-03-16T16:16:13.698Z,0.55
2023-03-16T16:18:41.057Z,0.95
2023-03-16T16:21:14.749Z,0.77
2023-03-16T16:23:41.540Z,0.73
2023-03-16T16:26:20.076Z,0.70
2023-03-16T16:28:47.571Z,0.90
2023-03-16T16:31:14.563Z,0.90
2023-03-16T16:33:41.232Z,1.10
2023-03-16T16:36:20.990Z,1.08
2023-03-16T16:38:49.020Z,1.00
2023-03-16T16:41:36.354Z,0.90
2023-03-16T16:44:08.213Z,0.80
2023-03-16T16:46:42.474Z,0.85
2023-03-16T16:49:28.101Z,0.77
2023-03-16T16:51:55.397Z,0.90
2023-03-16T16:54:40.320Z,1.00
2023-03-16T16:57:17.077Z,0.75
2023-03-16T16:59:46.993Z,0.70
2023-03-16T17:02:31.917Z,0.90
2023-03-16T17:04:58.709Z,0.70
2023-03-16T17:07:25.759Z,0.80
2023-03-16T17:09:52.483Z,1.17
2023-03-16T17:12:22.789Z,0.95
2023-03-16T17:14:50.498Z,0.77
2023-03-16T17:17:18.785Z,0.80
2023-03-16T17:19:46.933Z,0.88
2023-03-16T17:22:24.544Z,0.90
2023-03-16T17:24:52.277Z,1.17
2023-03-16T17:27:28.858Z,0.90
2023-03-16T17:29:57.043Z,0.82
2023-03-16T17:32:23.791Z,0.70
2023-03-16T17:34:51.545Z,0.77
2023-03-16T17:37:21.032Z,0.85
2023-03-16T17:39:47.772Z,0.82
2023-03-16T17:42:19.688Z,1.02
2023-03-16T17:44:51.232Z,1.13
2023-03-16T17:47:25.423Z,0.95
2023-03-16T17:49:52.597Z,1.65
2023-03-16T17:52:23.233Z,1.13
2023-03-16T17:54:52.008Z,1.00
2023-03-16T17:57:28.304Z,1.65
2023-03-16T17:59:55.434Z,1.30
2023-03-16T18:02:39.622Z,1.20
2023-03-16T18:05:15.656Z,1.45
2023-03-16T18:07:44.928Z,1.60
2023-03-16T18:10:17.053Z,1.40
2023-03-16T18:12:45.397Z,1.30
2023-03-16T18:15:18.800Z,1.45
2023-03-16T18:17:46.146Z,1.23
2023-03-16T18:20:24.448Z,1.38
2023-03-16T18:22:51.121Z,1.38
2023-03-16T18:25:31.424Z,1.50
2023-03-16T18:27:58.747Z,2.03
2023-03-16T18:30:26.047Z,1.30
2023-03-16T18:32:53.464Z,1.80
2023-03-16T18:35:20.547Z,1.48
2023-03-16T18:37:47.826Z,1.65
2023-03-16T18:40:17.030Z,1.88
2023-03-16T18:42:43.817Z,1.83
2023-03-16T18:45:12.481Z,1.92
2023-03-16T18:47:43.780Z,1.83
2023-03-16T18:50:28.553Z,2.00
2023-03-16T18:52:56.614Z,1.60
2023-03-16T18:55:24.987Z,2.00
2023-03-16T18:57:56.291Z,2.58
2023-03-16T19:00:29.693Z,2.58
2023-03-16T19:03:03.144Z,2.35
2023-03-16T19:05:35.749Z,2.25
2023-03-16T19:08:04.358Z,2.95
2023-03-16T19:10:35.432Z,2.80
2023-03-16T19:13:02.153Z,2.30
2023-03-16T19:15:33.917Z,2.65
2023-03-16T19:20:32.626Z,2.33
2023-03-16T19:23:17.071Z,2.30
2023-03-16T19:25:45.301Z,2.20
2023-03-16T19:28:25.453Z,2.50
2023-03-16T19:30:52.109Z,2.38
2023-03-16T19:33:27.938Z,2.47
2023-03-16T19:35:55.992Z,2.53
2023-03-16T19:38:24.215Z,2.47
2023-03-16T19:41:00.604Z,2.80
2023-03-16T19:43:28.590Z,3.00
2023-03-16T19:45:56.476Z,2.72
2023-03-16T19:48:32.729Z,3.38
2023-03-16T19:51:00.303Z,2.90
2023-03-16T19:53:27.523Z,3.17
2023-03-16T19:55:54.622Z,3.05
2023-03-16T19:58:33.198Z,3.28
2023-03-16T20:01:01.087Z,4.03
2023-03-16T20:03:31.640Z,2.88
2023-03-16T20:05:58.283Z,2.60
2023-03-16T20:08:28.503Z,2.45
2023-03-16T20:11:02.838Z,2.80
2023-03-16T20:13:31.395Z,2.92
2023-03-16T20:15:58.116Z,2.47
2023-03-16T20:18:24.792Z,2.47
2023-03-16T20:20:51.606Z,2.28
2023-03-16T20:23:29.346Z,2.60
2023-03-16T20:26:01.957Z,2.80
2023-03-16T20:28:36.529Z,3.03
2023-03-16T20:31:05.165Z,2.42
2023-03-16T20:33:32.055Z,2.75
2023-03-16T20:35:58.703Z,2.92
2023-03-16T20:38:25.614Z,3.03
2023-03-16T20:40:54.348Z,2.72
2023-03-16T20:43:24.530Z,3.30
2023-03-16T20:45:54.297Z,3.30
2023-03-16T20:48:21.811Z,3.17
2023-03-16T20:50:48.520Z,3.53
2023-03-16T20:53:15.220Z,3.03
2023-03-16T20:55:42.448Z,3.05
2023-03-16T20:58:19.606Z,2.22
2023-03-16T21:00:47.185Z,2.50
2023-03-16T21:03:24.975Z,2.40
2023-03-16T21:05:53.507Z,2.65
2023-03-16T21:08:20.464Z,2.47
2023-03-16T21:10:49.594Z,2.30
2023-03-16T21:13:27.781Z,2.03
2023-03-16T21:15:56.156Z,2.40
2023-03-16T21:18:23.385Z,2.10
2023-03-16T21:20:51.227Z,1.75
2023-03-16T21:23:21.131Z,2.33
2023-03-16T21:25:56.757Z,2.42
2023-03-16T21:28:25.827Z,1.92
2023-03-16T21:30:54.891Z,2.90
2023-03-16T21:33:29.928Z,2.60
2023-03-16T21:35:57.980Z,2.72
2023-03-16T21:38:26.412Z,2.65
2023-03-16T21:40:53.476Z,2.40
2023-03-16T21:43:20.905Z,2.55
2023-03-16T21:45:48.654Z,2.95
2023-03-16T21:48:32.363Z,2.25
2023-03-16T21:50:59.511Z,2.30
2023-03-16T21:53:29.019Z,2.22
2023-03-16T21:55:56.344Z,2.50
2023-03-16T21:58:24.117Z,2.05
2023-03-16T22:00:52.647Z,2.10
2023-03-16T22:03:47.993Z,2.33
2023-03-16T22:06:17.104Z,2.10
2023-03-16T22:08:43.957Z,2.50
2023-03-16T22:11:19.883Z,2.13
2023-03-16T22:13:47.176Z,1.90
2023-03-16T22:16:17.210Z,2.17
2023-03-16T22:18:45.872Z,2.08
2023-03-16T22:21:37.462Z,3.30
2023-03-16T22:24:20.409Z,2.00
2023-03-16T22:26:48.866Z,2.28
2023-03-16T22:29:28.211Z,1.98
2023-03-16T22:32:04.390Z,2.13
2023-03-16T22:34:41.514Z,2.08
2023-03-16T22:37:10.184Z,2.20
2023-03-16T22:39:38.243Z,1.90
2023-03-16T22:42:26.963Z,2.13
2023-03-16T22:44:55.424Z,1.90
2023-03-16T22:47:24.128Z,1.85
2023-03-16T22:49:50.895Z,3.60
2023-03-16T22:52:18.336Z,2.22
2023-03-16T22:54:46.352Z,1.70
2023-03-16T22:57:16.171Z,1.77
2023-03-16T22:59:44.839Z,2.05
2023-03-16T23:02:15.765Z,2.08
2023-03-16T23:04:42.583Z,1.87
2023-03-16T23:07:13.690Z,2.50
2023-03-16T23:09:41.225Z,2.10
2023-03-16T23:12:26.118Z,1.80
2023-03-16T23:14:52.750Z,1.90
2023-03-16T23:17:22.081Z,2.25
2023-03-16T23:19:48.964Z,2.30
2023-03-16T23:22:15.982Z,1.77
2023-03-16T23:24:43.125Z,2.00
2023-03-16T23:27:17.572Z,2.28
2023-03-16T23:29:44.651Z,2.10
2023-03-16T23:32:11.578Z,2.30
2023-03-16T23:34:38.268Z,1.67
2023-03-16T23:37:04.928Z,1.83
2023-03-16T23:39:31.615Z,2.08
2023-03-16T23:41:58.358Z,1.95
2023-03-16T23:44:28.762Z,1.98
2023-03-16T23:46:56.012Z,2.08
2023-03-16T23:49:26.272Z,2.40
2023-03-16T23:51:55.662Z,2.15
2023-03-16T23:54:25.420Z,1.75
2023-03-16T23:56:52.434Z,2.00
2023-03-16T23:59:20.308Z,1.90
